Stanley, Idaho
Current Conditions -  °F | °C
As of 10:55 PM on Saturday 25 Oct 2014 (Local Time) from KLLJ Reporting Station
Broken Clouds Broken Clouds  
Wind Chill: 51°   Ceiling: 9000
Heat Index: 51°   Visibility: 10mi
Dew Point: 37°   Wind: 7mph
Humidity: 59%   Direction: 190°S
Pressure: 29.88"   Gusts: NA
Location:  44.21°N, 114.95°W
Report Text: KLLJ 260455Z AUTO 19006KT 10SM SCT050 BKN090 BKN110 11/03 A2988 RMK AO2 PK WND 22028/0435 RAB03E53 SLP097 P0000 T01060028
Loading
Personal Weather Stations






























Interactive Weather Map
Tropical Storm Tracking
New forecast layout! Learn more

10-Day Weather Forecast

Advertisements
Track Severe Weather on mobile